Погода Акхисарна 2 недели

Эгейский регион, Турция

16 - 29 июня
  • 16июня
    Сегодня
    +17°
    +34°
    Ясно и безоблачно
    ВремяПогодаТемператураВлажностьДавлениеВетер, м/сВероятность осадков
    00:00Ясно и безоблачно+23°C60 %747 мм1.5 м/с2 %
    03:00Ясно и безоблачно+20°C70 %747 мм1.1 м/с2 %
    06:00Ясно и безоблачно+18°C74 %747 мм0.8 м/с2 %
    09:00Ясно и безоблачно+23°C50 %748 мм1.4 м/с2 %
    12:00Ясно и безоблачно+30°C28 %747 мм2.0 м/с2 %
    15:00Ясно и безоблачно+33°C23 %746 мм2.6 м/с2 %
    18:00Ясно и безоблачно+32°C25 %746 мм2.7 м/с2 %
    21:00Ясно и безоблачно+28°C39 %747 мм2.3 м/с2 %
  • 17июня
    Понедельник
    +19°
    +36°
    Ясно и безоблачно
    ВремяПогодаТемператураВлажностьДавлениеВетер, м/сВероятность осадков
    00:00Ясно и безоблачно+24°C55 %748 мм1.5 м/с2 %
    03:00Ясно и безоблачно+20°C70 %748 мм0.8 м/с2 %
    06:00Ясно и безоблачно+18°C77 %749 мм0.6 м/с2 %
    09:00Ясно и безоблачно+24°C47 %749 мм1.4 м/с2 %
    12:00Небольшая облачность+31°C27 %749 мм2.0 м/с2 %
    15:00Ясно и безоблачно+35°C18 %748 мм2.8 м/с2 %
    18:00Ясно и безоблачно+34°C22 %747 мм3.0 м/с2 %
    21:00Ясно и безоблачно+29°C33 %748 мм2.3 м/с2 %
  • 18июня
    Вторник
    +20°
    +37°
    Ясно и безоблачно
    ВремяПогодаТемператураВлажностьДавлениеВетер, м/сВероятность осадков
    00:00Ясно и безоблачно+25°C45 %749 мм1.6 м/с2 %
    03:00Ясно и безоблачно+21°C55 %749 мм1.2 м/с2 %
    06:00Ясно и безоблачно+19°C63 %749 мм1.1 м/с2 %
    09:00Ясно и безоблачно+25°C47 %749 мм1.6 м/с2 %
    12:00Ясно и безоблачно+32°C28 %749 мм2.2 м/с2 %
    15:00Ясно и безоблачно+36°C25 %748 мм3.2 м/с2 %
    18:00Небольшая облачность+34°C32 %748 мм3.3 м/с2 %
    21:00Практически безоблачно+30°C45 %749 мм2.7 м/с2 %
  • 19июня
    Среда
    +20°
    +36°
    Ясно и безоблачно
    ВремяПогодаТемператураВлажностьДавлениеВетер, м/сВероятность осадков
    00:00Ясно и безоблачно+26°C55 %749 мм2.2 м/с2 %
    03:00Ясно и безоблачно+22°C63 %749 мм1.7 м/с2 %
    06:00Практически безоблачно+20°C68 %749 мм1.6 м/с2 %
    09:00Небольшая облачность+25°C53 %750 мм2.1 м/с2 %
    12:00Практически безоблачно+31°C32 %749 мм2.3 м/с2 %
    15:00Ясно и безоблачно+35°C28 %748 мм3.3 м/с6 %
    18:00Облачно с прояснениями+34°C36 %748 мм3.3 м/с4 %
    21:00Облачно с прояснениями+29°C48 %749 мм2.7 м/с2 %
  • 20июня
    Четверг
    +20°
    +36°
    Ясно и безоблачно
    ВремяПогодаТемператураВлажностьДавлениеВетер, м/сВероятность осадков
    00:00Практически безоблачно+26°C60 %749 мм2.2 м/с2 %
    03:00Ясно и безоблачно+23°C71 %748 мм1.7 м/с2 %
    06:00Небольшая облачность+21°C80 %748 мм1.7 м/с2 %
    09:00Ясно и безоблачно+25°C59 %749 мм2.3 м/с2 %
    12:00Ясно и безоблачно+31°C38 %748 мм2.7 м/с2 %
    15:00Ясно и безоблачно+35°C33 %747 мм3.5 м/с5 %
    18:00Небольшая облачность+34°C39 %747 мм3.4 м/с4 %
    21:00Ясно и безоблачно+30°C54 %748 мм3.3 м/с2 %
Мы используем cookies
Соглашаюсь